createdAt,value
2022-12-26T00:01:43.154Z,8.40
2022-12-26T00:04:48.517Z,8.40
2022-12-26T00:06:56.701Z,8.30
2022-12-26T00:09:23.179Z,8.30
2022-12-26T00:11:50.091Z,8.30
2022-12-26T00:14:17.018Z,8.30
2022-12-26T00:16:45.355Z,8.30
2022-12-26T00:19:11.851Z,8.30
2022-12-26T00:21:39.031Z,8.30
2022-12-26T00:24:06.096Z,8.30
2022-12-26T00:26:33.128Z,8.30
2022-12-26T00:29:00.108Z,8.30
2022-12-26T00:31:28.751Z,8.20
2022-12-26T00:33:56.004Z,8.20
2022-12-26T00:36:24.253Z,8.20
2022-12-26T00:38:51.506Z,8.20
2022-12-26T00:41:19.018Z,8.20
2022-12-26T00:43:45.516Z,8.10
2022-12-26T00:46:12.050Z,8.10
2022-12-26T00:48:38.533Z,8.10
2022-12-26T00:51:05.234Z,8.10
2022-12-26T00:53:32.235Z,8.20
2022-12-26T00:55:58.962Z,8.20
2022-12-26T00:58:26.163Z,8.20
2022-12-26T01:00:53.742Z,8.20
2022-12-26T01:03:20.956Z,8.10
2022-12-26T01:05:48.512Z,8.10
2022-12-26T01:08:19.446Z,8.10
2022-12-26T01:10:50.404Z,8.10
2022-12-26T01:13:17.339Z,8.10
2022-12-26T01:15:48.176Z,8.10
2022-12-26T01:18:14.624Z,8.10
2022-12-26T01:20:41.072Z,8.10
2022-12-26T01:23:08.151Z,8.10
2022-12-26T01:25:34.598Z,8.10
2022-12-26T01:28:01.519Z,8.10
2022-12-26T01:30:28.007Z,8.10
2022-12-26T01:32:54.945Z,8.10
2022-12-26T01:35:21.869Z,8.10
2022-12-26T01:37:48.336Z,8.10
2022-12-26T01:40:15.249Z,8.10
2022-12-26T01:42:42.018Z,8.10
2022-12-26T01:45:23.203Z,8.00
2022-12-26T01:47:52.389Z,8.10
2022-12-26T01:50:37.938Z,8.10
2022-12-26T01:53:21.603Z,8.00
2022-12-26T01:55:50.907Z,8.10
2022-12-26T01:58:19.691Z,8.00
2022-12-26T02:00:48.966Z,8.00
2022-12-26T02:03:35.463Z,8.00
2022-12-26T02:06:02.223Z,8.10
2022-12-26T02:08:30.887Z,8.10
2022-12-26T02:11:04.235Z,8.00
2022-12-26T02:13:31.180Z,8.00
2022-12-26T02:15:57.645Z,8.10
2022-12-26T02:18:24.560Z,8.10
2022-12-26T02:21:00.220Z,8.00
2022-12-26T02:23:52.290Z,8.10
2022-12-26T02:26:33.396Z,8.10
2022-12-26T02:29:06.420Z,8.10
2022-12-26T02:31:51.862Z,8.10
2022-12-26T02:34:48.050Z,8.10
2022-12-26T02:37:23.668Z,8.10
2022-12-26T02:39:57.334Z,8.10
2022-12-26T02:42:26.766Z,8.10
2022-12-26T02:45:21.502Z,8.10
2022-12-26T02:47:51.155Z,8.10
2022-12-26T02:50:43.452Z,8.10
2022-12-26T02:53:34.910Z,8.10
2022-12-26T02:56:24.847Z,8.10
2022-12-26T02:59:19.719Z,8.10
2022-12-26T03:02:29.442Z,7.30
2022-12-26T03:05:15.700Z,8.10
2022-12-26T03:08:01.208Z,8.10
2022-12-26T03:10:53.596Z,8.20
2022-12-26T03:13:23.974Z,8.10
2022-12-26T03:16:14.895Z,8.10
2022-12-26T03:18:58.520Z,8.10
2022-12-26T03:21:29.024Z,8.10
2022-12-26T03:23:56.950Z,8.10
2022-12-26T03:26:42.191Z,8.10
2022-12-26T03:29:31.513Z,8.10
2022-12-26T03:31:58.897Z,8.10
2022-12-26T03:34:25.943Z,8.10
2022-12-26T03:37:02.038Z,8.20
2022-12-26T03:40:05.708Z,8.10
2022-12-26T03:42:54.630Z,8.10
2022-12-26T03:45:47.149Z,8.10
2022-12-26T03:48:49.795Z,8.10
2022-12-26T03:51:47.992Z,8.10
2022-12-26T03:54:34.919Z,8.10
2022-12-26T03:57:24.425Z,8.10
2022-12-26T04:00:11.479Z,8.10
2022-12-26T04:02:57.633Z,8.10
2022-12-26T04:05:43.597Z,8.00
2022-12-26T04:08:43.770Z,8.30
2022-12-26T04:11:35.189Z,8.20
2022-12-26T04:14:43.506Z,8.20
2022-12-26T04:17:33.025Z,8.20
2022-12-26T04:20:02.644Z,8.20
2022-12-26T04:22:57.968Z,8.20
2022-12-26T04:25:50.538Z,8.10
2022-12-26T04:28:37.505Z,8.10
2022-12-26T04:31:26.503Z,8.10
2022-12-26T04:34:15.614Z,8.10
2022-12-26T04:37:11.751Z,8.10
2022-12-26T04:39:58.783Z,8.10
2022-12-26T04:42:45.139Z,8.10
2022-12-26T04:45:13.011Z,8.10
2022-12-26T04:47:59.893Z,8.20
2022-12-26T04:50:26.793Z,8.20
2022-12-26T04:52:58.697Z,8.20
2022-12-26T04:55:27.059Z,8.20
2022-12-26T04:57:54.313Z,8.20
2022-12-26T05:00:22.234Z,8.20
2022-12-26T05:03:07.914Z,8.20
2022-12-26T05:06:12.894Z,8.10
2022-12-26T05:09:00.249Z,8.20
2022-12-26T05:11:27.363Z,8.20
2022-12-26T05:13:54.807Z,8.20
2022-12-26T05:16:40.137Z,8.20
2022-12-26T05:19:25.558Z,8.20
2022-12-26T05:22:10.960Z,8.20
2022-12-26T05:24:58.355Z,8.20
2022-12-26T05:27:44.301Z,8.20
2022-12-26T05:30:12.540Z,8.10
2022-12-26T05:32:58.203Z,8.20
2022-12-26T05:35:24.680Z,8.20
2022-12-26T05:37:51.577Z,8.20
2022-12-26T05:40:18.031Z,8.20
2022-12-26T05:42:44.940Z,8.20
2022-12-26T05:45:11.834Z,8.20
2022-12-26T05:47:38.914Z,8.20
2022-12-26T05:50:05.988Z,8.10
2022-12-26T05:52:33.044Z,8.30
2022-12-26T05:55:00.112Z,8.30
2022-12-26T05:57:26.568Z,8.30
2022-12-26T05:59:53.015Z,8.30
2022-12-26T06:02:20.015Z,8.30
2022-12-26T06:04:46.567Z,8.30
2022-12-26T06:07:13.042Z,8.30
2022-12-26T06:09:39.949Z,8.30
2022-12-26T06:12:06.859Z,8.30
2022-12-26T06:14:33.350Z,8.30
2022-12-26T06:17:00.240Z,8.30
2022-12-26T06:19:27.143Z,8.30
2022-12-26T06:21:53.629Z,8.40
2022-12-26T06:24:20.570Z,8.40
2022-12-26T06:26:47.077Z,8.40
2022-12-26T06:29:13.986Z,8.40
2022-12-26T06:31:40.462Z,8.40
2022-12-26T06:34:07.408Z,8.40
2022-12-26T06:36:33.853Z,8.40
2022-12-26T06:39:01.531Z,8.40
2022-12-26T06:41:28.040Z,8.40
2022-12-26T06:43:56.162Z,8.40
2022-12-26T06:46:25.072Z,8.40
2022-12-26T06:48:52.606Z,8.40
2022-12-26T06:51:23.376Z,8.40
2022-12-26T06:53:51.217Z,8.40
2022-12-26T06:56:19.327Z,8.40
2022-12-26T06:58:46.271Z,8.50
2022-12-26T07:01:14.638Z,8.50
2022-12-26T07:03:48.593Z,8.40
2022-12-26T07:06:22.179Z,8.40
2022-12-26T07:08:49.472Z,8.50
2022-12-26T07:11:23.016Z,8.40
2022-12-26T07:13:51.793Z,8.40
2022-12-26T07:16:18.426Z,8.40
2022-12-26T07:18:45.415Z,8.40
2022-12-26T07:21:13.194Z,8.50
2022-12-26T07:23:40.270Z,8.50
2022-12-26T07:26:07.475Z,8.50
2022-12-26T07:28:33.930Z,8.50
2022-12-26T07:31:01.283Z,8.50
2022-12-26T07:33:28.793Z,8.50
2022-12-26T07:35:59.914Z,8.50
2022-12-26T07:38:26.641Z,8.50
2022-12-26T07:40:57.029Z,8.50
2022-12-26T07:43:24.305Z,8.50
2022-12-26T07:45:51.020Z,8.50
2022-12-26T07:48:17.539Z,8.50
2022-12-26T07:50:47.589Z,8.60
2022-12-26T07:53:14.780Z,8.60
2022-12-26T07:55:41.977Z,8.60
2022-12-26T07:58:08.446Z,8.60
2022-12-26T08:00:34.888Z,8.60
2022-12-26T08:03:08.606Z,8.60
2022-12-26T08:05:35.283Z,8.60
2022-12-26T08:08:01.835Z,8.60
2022-12-26T08:10:28.811Z,8.60
2022-12-26T08:12:55.296Z,8.60
2022-12-26T08:15:22.255Z,8.60
2022-12-26T08:17:48.710Z,8.60
2022-12-26T08:20:15.636Z,8.60
2022-12-26T08:22:42.124Z,8.60
2022-12-26T08:25:09.028Z,8.50
2022-12-26T08:27:35.516Z,8.60
2022-12-26T08:30:02.483Z,8.60
2022-12-26T08:32:28.941Z,8.60
2022-12-26T08:34:55.858Z,8.60
2022-12-26T08:37:24.900Z,8.60
2022-12-26T08:39:53.879Z,8.60
2022-12-26T08:42:20.765Z,8.60
2022-12-26T08:44:47.270Z,8.60
2022-12-26T08:47:14.666Z,8.60
2022-12-26T08:49:41.351Z,8.60
2022-12-26T08:52:08.281Z,8.60
2022-12-26T08:54:34.935Z,8.60
2022-12-26T08:57:01.832Z,8.60
2022-12-26T08:59:28.289Z,8.50
2022-12-26T09:01:54.839Z,8.50
2022-12-26T09:04:21.824Z,8.50
2022-12-26T09:06:48.332Z,8.60
2022-12-26T09:09:14.821Z,8.60
2022-12-26T09:11:41.680Z,8.60
2022-12-26T09:14:09.195Z,8.70
2022-12-26T09:16:42.974Z,8.70
2022-12-26T09:19:14.092Z,8.70
2022-12-26T09:21:40.710Z,8.60
2022-12-26T09:24:09.660Z,8.70
2022-12-26T09:26:36.564Z,8.70
2022-12-26T09:29:03.566Z,8.70
2022-12-26T09:31:31.724Z,8.70
2022-12-26T09:33:58.545Z,8.80
2022-12-26T09:36:26.758Z,8.80
2022-12-26T09:38:54.730Z,8.80
2022-12-26T09:41:30.716Z,8.80
2022-12-26T09:44:00.151Z,8.90
2022-12-26T09:46:42.001Z,8.90
2022-12-26T09:49:40.940Z,8.90
2022-12-26T09:52:12.704Z,9.00
2022-12-26T09:54:41.183Z,8.90
2022-12-26T09:57:15.064Z,8.90
2022-12-26T09:59:48.681Z,8.90
2022-12-26T10:02:22.845Z,8.90
2022-12-26T10:04:50.025Z,8.90
2022-12-26T10:07:16.945Z,8.90
2022-12-26T10:09:59.771Z,8.90
2022-12-26T10:12:37.489Z,9.00
2022-12-26T10:15:17.839Z,9.00
2022-12-26T10:17:59.629Z,9.00
2022-12-26T10:20:59.183Z,9.00
2022-12-26T10:23:30.406Z,9.00
2022-12-26T10:26:04.332Z,9.00
2022-12-26T10:28:40.147Z,9.10
2022-12-26T10:31:11.698Z,9.10
2022-12-26T10:33:45.046Z,9.10
2022-12-26T10:36:32.270Z,9.00
2022-12-26T10:38:59.642Z,9.00
2022-12-26T10:41:27.788Z,9.00
2022-12-26T10:43:54.882Z,9.00
2022-12-26T10:46:42.601Z,9.10
2022-12-26T10:49:11.692Z,9.10
2022-12-26T10:51:38.718Z,9.10
2022-12-26T10:54:12.699Z,9.10
2022-12-26T10:56:39.417Z,9.10
2022-12-26T10:59:06.378Z,9.10
2022-12-26T11:01:33.626Z,9.10
2022-12-26T11:04:01.573Z,9.20
2022-12-26T11:06:31.474Z,9.20
2022-12-26T11:08:59.416Z,9.30
2022-12-26T11:11:45.458Z,9.30
2022-12-26T11:14:34.119Z,9.30
2022-12-26T11:17:07.145Z,9.40
2022-12-26T11:19:38.829Z,9.50
2022-12-26T11:22:20.426Z,9.60
2022-12-26T11:25:02.344Z,9.70
2022-12-26T11:27:28.874Z,9.70
2022-12-26T11:30:14.119Z,9.70
2022-12-26T11:32:41.740Z,9.70
2022-12-26T11:35:17.721Z,9.80
2022-12-26T11:37:45.237Z,9.90
2022-12-26T11:40:27.587Z,10.00
2022-12-26T11:42:58.654Z,9.90
2022-12-26T11:45:27.477Z,9.90
2022-12-26T11:47:55.959Z,9.90
2022-12-26T11:50:25.608Z,10.00
2022-12-26T11:52:57.813Z,10.00
2022-12-26T11:55:25.090Z,10.10
2022-12-26T11:57:58.841Z,10.10
2022-12-26T12:00:26.403Z,10.10
2022-12-26T12:02:52.954Z,10.00
2022-12-26T12:05:28.587Z,9.90
2022-12-26T12:08:16.760Z,9.80
2022-12-26T12:10:54.136Z,9.70
2022-12-26T12:13:24.933Z,9.80
2022-12-26T12:15:51.357Z,9.80
2022-12-26T12:18:23.013Z,9.90
2022-12-26T12:21:03.623Z,9.90
2022-12-26T12:23:48.979Z,9.90
2022-12-26T12:26:18.675Z,9.90
2022-12-26T12:29:02.837Z,9.80
2022-12-26T12:31:29.469Z,9.80
2022-12-26T12:33:59.055Z,9.70
2022-12-26T12:36:39.097Z,9.70
2022-12-26T12:39:10.957Z,9.60
2022-12-26T12:41:56.702Z,9.60
2022-12-26T12:44:33.709Z,9.60
2022-12-26T12:47:07.584Z,9.60
2022-12-26T12:49:42.251Z,9.50
2022-12-26T12:52:16.589Z,9.50
2022-12-26T12:54:50.291Z,9.50
2022-12-26T12:57:26.443Z,9.50
2022-12-26T13:00:12.935Z,9.60
2022-12-26T13:02:51.449Z,9.60
2022-12-26T13:05:26.039Z,9.70
2022-12-26T13:07:55.908Z,9.70
2022-12-26T13:10:30.989Z,9.70
2022-12-26T13:12:58.181Z,9.70
2022-12-26T13:15:41.624Z,9.70
2022-12-26T13:18:12.171Z,9.60
2022-12-26T13:20:38.598Z,9.60
2022-12-26T13:23:25.337Z,9.60
2022-12-26T13:26:05.527Z,9.60
2022-12-26T13:28:34.034Z,9.50
2022-12-26T13:31:00.516Z,9.50
2022-12-26T13:33:28.586Z,9.40
2022-12-26T13:35:59.452Z,9.40
2022-12-26T13:38:52.277Z,9.40
2022-12-26T13:41:39.775Z,9.40
2022-12-26T13:44:08.421Z,9.40
2022-12-26T13:46:55.931Z,9.40
2022-12-26T13:49:30.327Z,9.30
2022-12-26T13:51:58.801Z,9.30
2022-12-26T13:54:27.141Z,9.20
2022-12-26T13:57:01.507Z,9.20
2022-12-26T13:59:39.448Z,9.20
2022-12-26T14:02:36.837Z,9.20
2022-12-26T14:05:29.979Z,9.20
2022-12-26T14:08:22.780Z,9.30
2022-12-26T14:10:52.403Z,9.30
2022-12-26T14:13:30.767Z,9.30
2022-12-26T14:16:05.683Z,9.30
2022-12-26T14:18:36.144Z,9.30
2022-12-26T14:21:20.924Z,9.30
2022-12-26T14:24:07.395Z,9.30
2022-12-26T14:26:38.694Z,9.30
2022-12-26T14:29:25.456Z,9.30
2022-12-26T14:31:51.887Z,9.30
2022-12-26T14:34:27.425Z,9.30
2022-12-26T14:36:59.444Z,9.20
2022-12-26T14:39:52.920Z,9.10
2022-12-26T14:42:39.899Z,9.00
2022-12-26T14:45:13.352Z,8.80
2022-12-26T14:47:42.630Z,8.70
2022-12-26T14:50:28.107Z,8.50
2022-12-26T14:52:55.088Z,8.40
2022-12-26T14:55:39.653Z,8.30
2022-12-26T14:58:24.218Z,8.20
2022-12-26T15:00:51.143Z,8.20
2022-12-26T15:03:53.481Z,8.10
2022-12-26T15:06:20.048Z,8.10
2022-12-26T15:08:56.052Z,7.90
2022-12-26T15:11:22.474Z,7.80
2022-12-26T15:14:08.285Z,7.70
2022-12-26T15:16:41.010Z,7.60
2022-12-26T15:19:26.604Z,7.60
2022-12-26T15:22:01.632Z,7.50
2022-12-26T15:25:08.368Z,7.50
2022-12-26T15:27:34.242Z,7.40
2022-12-26T15:30:21.423Z,7.40
2022-12-26T15:32:57.924Z,7.40
2022-12-26T15:35:43.986Z,7.40
2022-12-26T15:38:17.698Z,7.20
2022-12-26T15:40:57.900Z,7.10
2022-12-26T15:43:29.476Z,7.00
2022-12-26T15:46:22.809Z,6.90
2022-12-26T15:48:58.599Z,6.90
2022-12-26T15:51:25.500Z,6.90
2022-12-26T15:54:11.255Z,7.00
2022-12-26T15:56:38.875Z,6.90
2022-12-26T15:59:09.670Z,6.90
2022-12-26T16:01:41.260Z,6.90
2022-12-26T16:04:12.855Z,7.00
2022-12-26T16:06:48.815Z,7.00
2022-12-26T16:09:36.789Z,6.90
2022-12-26T16:12:17.865Z,6.80
2022-12-26T16:14:44.394Z,6.60
2022-12-26T16:17:10.816Z,6.60
2022-12-26T16:19:38.043Z,6.60
2022-12-26T16:22:24.630Z,6.50
2022-12-26T16:24:52.341Z,6.60
2022-12-26T16:27:20.825Z,6.50
2022-12-26T16:29:57.944Z,6.60
2022-12-26T16:32:28.991Z,6.60
2022-12-26T16:34:57.505Z,6.60
2022-12-26T16:37:25.531Z,6.60
2022-12-26T16:40:24.642Z,6.50
2022-12-26T16:43:14.230Z,6.40
2022-12-26T16:45:41.844Z,6.20
2022-12-26T16:48:09.320Z,6.10
2022-12-26T16:50:44.364Z,6.00
2022-12-26T16:53:13.017Z,5.90
2022-12-26T16:56:01.198Z,5.90
2022-12-26T16:58:30.554Z,5.80
2022-12-26T17:01:14.265Z,5.70
2022-12-26T17:03:48.071Z,5.70
2022-12-26T17:06:17.964Z,5.60
2022-12-26T17:08:45.973Z,5.60
2022-12-26T17:11:12.938Z,5.50
2022-12-26T17:13:39.612Z,5.50
2022-12-26T17:16:10.474Z,5.40
2022-12-26T17:18:47.660Z,5.40
2022-12-26T17:21:15.812Z,5.30
2022-12-26T17:23:43.088Z,5.30
2022-12-26T17:26:21.553Z,5.20
2022-12-26T17:28:48.011Z,5.20
2022-12-26T17:31:38.556Z,5.20
2022-12-26T17:34:17.536Z,5.10
2022-12-26T17:37:17.889Z,5.10
2022-12-26T17:39:31.103Z,5.10
2022-12-26T17:41:59.512Z,5.00
2022-12-26T17:44:36.579Z,4.90
2022-12-26T17:47:11.380Z,4.90
2022-12-26T17:49:37.860Z,4.80
2022-12-26T17:52:04.402Z,4.80
2022-12-26T17:54:30.884Z,4.70
2022-12-26T17:56:57.547Z,4.70
2022-12-26T17:59:24.015Z,4.70
2022-12-26T18:01:50.533Z,4.60
2022-12-26T18:04:17.051Z,4.60
2022-12-26T18:06:43.509Z,4.60
2022-12-26T18:09:21.603Z,4.50
2022-12-26T18:11:48.189Z,4.50
2022-12-26T18:14:14.657Z,4.50
2022-12-26T18:16:41.571Z,4.50
2022-12-26T18:19:12.013Z,4.50
2022-12-26T18:21:38.885Z,4.50
2022-12-26T18:24:05.424Z,4.50
2022-12-26T18:26:32.304Z,4.60
2022-12-26T18:28:59.368Z,4.60
2022-12-26T18:31:29.248Z,4.60
2022-12-26T18:33:56.243Z,4.50
2022-12-26T18:36:36.229Z,4.40
2022-12-26T18:39:04.563Z,4.40
2022-12-26T18:41:31.083Z,4.30
2022-12-26T18:43:58.499Z,4.20
2022-12-26T18:46:26.216Z,4.20
2022-12-26T18:48:57.371Z,4.20
2022-12-26T18:51:24.353Z,4.20
2022-12-26T18:53:50.848Z,4.20
2022-12-26T18:56:19.304Z,4.20
2022-12-26T18:58:48.385Z,4.20
2022-12-26T19:01:19.062Z,4.30
2022-12-26T19:03:46.865Z,4.40
2022-12-26T19:06:15.949Z,4.50
2022-12-26T19:08:42.838Z,4.60
2022-12-26T19:11:11.266Z,4.70
2022-12-26T19:13:37.735Z,4.70
2022-12-26T19:16:04.872Z,4.80
2022-12-26T19:18:31.336Z,4.80
2022-12-26T19:20:58.800Z,4.80
2022-12-26T19:23:25.682Z,4.80
2022-12-26T19:25:52.579Z,4.80
2022-12-26T19:28:19.028Z,4.70
2022-12-26T19:30:45.959Z,4.60
2022-12-26T19:33:12.839Z,4.60
2022-12-26T19:35:39.703Z,4.50
2022-12-26T19:38:06.609Z,4.40
2022-12-26T19:40:33.534Z,4.40
2022-12-26T19:43:00.369Z,4.30
2022-12-26T19:45:27.610Z,4.30
2022-12-26T19:47:54.180Z,4.20
2022-12-26T19:50:21.080Z,4.20
2022-12-26T19:52:47.591Z,4.20
2022-12-26T19:55:14.105Z,4.10
2022-12-26T19:57:41.042Z,4.10
2022-12-26T20:00:08.655Z,4.10
2022-12-26T20:02:35.639Z,4.00
2022-12-26T20:05:02.177Z,4.00
2022-12-26T20:07:28.633Z,4.00
2022-12-26T20:09:55.563Z,4.00
2022-12-26T20:12:22.020Z,4.00
2022-12-26T20:14:48.476Z,3.90
2022-12-26T20:17:15.389Z,3.90
2022-12-26T20:19:44.213Z,3.90
2022-12-26T20:22:11.410Z,3.90
2022-12-26T20:24:38.295Z,3.90
2022-12-26T20:27:05.319Z,3.90
2022-12-26T20:29:31.795Z,3.90
2022-12-26T20:31:58.840Z,3.90
2022-12-26T20:34:25.680Z,3.90
2022-12-26T20:36:52.541Z,3.90
2022-12-26T20:39:19.850Z,3.90
2022-12-26T20:41:46.628Z,3.90
2022-12-26T20:44:13.762Z,3.90
2022-12-26T20:46:41.228Z,3.90
2022-12-26T20:49:07.888Z,3.90
2022-12-26T20:51:37.902Z,3.90
2022-12-26T20:54:08.551Z,3.90
2022-12-26T20:56:36.414Z,3.90
2022-12-26T20:59:03.476Z,3.80
2022-12-26T21:01:30.497Z,3.90
2022-12-26T21:03:57.610Z,3.80
2022-12-26T21:06:35.183Z,3.80
2022-12-26T21:09:02.043Z,3.80
2022-12-26T21:11:30.780Z,3.80
2022-12-26T21:13:58.932Z,3.80
2022-12-26T21:16:30.198Z,3.80
2022-12-26T21:18:58.136Z,3.80
2022-12-26T21:21:26.718Z,3.80
2022-12-26T21:23:57.517Z,3.80
2022-12-26T21:26:24.856Z,3.80
2022-12-26T21:28:55.187Z,3.80
2022-12-26T21:31:21.713Z,3.70
2022-12-26T21:33:48.588Z,3.70
2022-12-26T21:36:15.102Z,3.70
2022-12-26T21:38:42.000Z,3.60
2022-12-26T21:41:12.179Z,3.60
2022-12-26T21:43:38.635Z,3.50
2022-12-26T21:46:13.728Z,3.50
2022-12-26T21:48:47.563Z,3.50
2022-12-26T21:51:15.133Z,3.50
2022-12-26T21:53:42.243Z,3.50
2022-12-26T21:56:09.567Z,3.40
2022-12-26T21:58:55.290Z,3.40
2022-12-26T22:01:23.725Z,3.40
2022-12-26T22:04:09.074Z,3.30
2022-12-26T22:06:36.168Z,3.30
2022-12-26T22:09:03.406Z,3.30
2022-12-26T22:11:48.773Z,3.30
2022-12-26T22:14:15.231Z,3.30
2022-12-26T22:16:42.364Z,3.30
2022-12-26T22:19:09.538Z,3.30
2022-12-26T22:24:23.874Z,3.30
2022-12-26T22:26:50.766Z,3.30
2022-12-26T22:29:17.234Z,3.30
2022-12-26T22:31:44.206Z,3.30
2022-12-26T22:34:12.688Z,3.40
2022-12-26T22:36:40.290Z,3.40
2022-12-26T22:39:07.708Z,3.30
2022-12-26T22:41:34.191Z,3.40
2022-12-26T22:44:00.926Z,3.40
2022-12-26T22:46:27.838Z,3.40
2022-12-26T22:48:54.724Z,3.40
2022-12-26T22:51:23.717Z,3.30
2022-12-26T22:53:53.221Z,3.30
2022-12-26T22:56:20.081Z,3.40
2022-12-26T22:58:46.540Z,3.30
2022-12-26T23:01:14.644Z,3.40
2022-12-26T23:03:41.297Z,3.40
2022-12-26T23:06:26.698Z,3.40
2022-12-26T23:08:54.519Z,3.40
2022-12-26T23:11:22.698Z,3.40
2022-12-26T23:13:49.717Z,3.40
2022-12-26T23:16:24.617Z,3.40
2022-12-26T23:19:10.789Z,3.40
2022-12-26T23:21:45.099Z,3.30
2022-12-26T23:27:26.736Z,3.30
2022-12-26T23:30:12.266Z,3.30
2022-12-26T23:32:40.173Z,3.20
2022-12-26T23:35:08.028Z,3.20
2022-12-26T23:37:34.965Z,3.10
2022-12-26T23:40:01.605Z,3.10
2022-12-26T23:42:28.469Z,3.10
2022-12-26T23:44:54.953Z,3.10
2022-12-26T23:47:21.845Z,3.10
2022-12-26T23:49:48.322Z,3.10
2022-12-26T23:52:15.199Z,3.10
2022-12-26T23:54:42.716Z,3.00
2022-12-26T23:57:09.176Z,3.00
2022-12-26T23:59:35.628Z,3.00
